Time;durP1;ratioP1;P1;durP2;ratioP2;P2;SDS_P1;SDS_P2;PMS_P1;PMS_P2;Temp;Humidity;BMP_temperature;BMP_pressure;BME280_temperature;BME280_humidity;BME280_pressure;Samples;Min_cycle;Max_cycle;Signal;HPM_P1;HPM_P2
2022/11/10 00:02:15;;;;;;;3.50;1.85;;;;;;;;;;10473604;28;20032;-76
2022/11/10 00:07:29;;;;;;;6.95;3.65;;;;;;;;;;10477355;28;20051;-76
2022/11/10 00:12:32;;;;;;;;;;;;;;;;;;10475053;28;20164;-75
2022/11/10 00:17:39;;;;;;;4.63;2.58;;;;;;;;;;10475636;28;19928;-76
2022/11/10 00:22:43;;;;;;;2.53;1.60;;;;;;;;;;10475767;28;20048;-76
2022/11/10 00:27:46;;;;;;;;;;;;;;;;;;10474380;28;20064;-76
2022/11/10 00:32:49;;;;;;;2.05;1.38;;;;;;;;;;10472657;28;19974;-76
2022/11/10 00:37:53;;;;;;;6.10;2.90;;;;;;;;;;10475795;28;20050;-76
2022/11/10 00:42:57;;;;;;;5.07;2.60;;;;;;;;;;10474652;28;20098;-77
2022/11/10 00:48:00;;;;;;;4.53;2.53;;;;;;;;;;10474184;28;20040;-77
2022/11/10 00:53:04;;;;;;;2.35;1.42;;;;;;;;;;10477674;28;20151;-76
2022/11/10 00:58:07;;;;;;;4.05;2.28;;;;;;;;;;10474516;28;20039;-77
2022/11/10 01:03:12;;;;;;;4.40;2.20;;;;;;;;;;10472684;28;20037;-77
2022/11/10 01:08:16;;;;;;;1.98;1.23;;;;;;;;;;10479770;28;20052;-76
2022/11/10 01:13:19;;;;;;;;;;;;;;;;;;10508191;28;20056;-75
2022/11/10 01:18:23;;;;;;;4.07;2.20;;;;;;;;;;10474376;28;19930;-77
2022/11/10 01:23:27;;;;;;;6.30;2.33;;;;;;;;;;10475273;28;20062;-75
2022/11/10 01:28:31;;;;;;;2.78;1.75;;;;;;;;;;10473699;28;20135;-76
2022/11/10 01:33:34;;;;;;;3.63;2.10;;;;;;;;;;10473471;28;20037;-77
2022/11/10 01:38:40;;;;;;;2.88;1.88;;;;;;;;;;10474953;28;20055;-76
2022/11/10 01:43:43;;;;;;;5.18;2.50;;;;;;;;;;10474026;28;20142;-76
2022/11/10 01:48:47;;;;;;;1.87;1.40;;;;;;;;;;10475179;28;20048;-76
2022/11/10 01:53:53;;;;;;;1.65;1.23;;;;;;;;;;10480178;28;20044;-77
2022/11/10 01:58:57;;;;;;;1.90;1.05;;;;;;;;;;10487737;28;20044;-76
2022/11/10 02:04:01;;;;;;;2.28;1.13;;;;;;;;;;10479698;28;20047;-77
2022/11/10 02:09:07;;;;;;;1.67;1.10;;;;;;;;;;10480373;28;20044;-76
2022/11/10 02:14:11;;;;;;;1.20;0.88;;;;;;;;;;10479378;28;20048;-76
2022/11/10 02:19:16;;;;;;;1.20;0.90;;;;;;;;;;10481165;28;20052;-76
2022/11/10 02:24:20;;;;;;;1.33;0.85;;;;;;;;;;10479806;28;20182;-76
2022/11/10 02:29:23;;;;;;;1.92;0.77;;;;;;;;;;10476586;28;20044;-76
2022/11/10 02:34:26;;;;;;;0.85;0.70;;;;;;;;;;10482115;28;20041;-76
2022/11/10 02:39:30;;;;;;;1.17;0.70;;;;;;;;;;10485477;28;20058;-76
2022/11/10 02:44:33;;;;;;;1.02;0.80;;;;;;;;;;10478624;28;20040;-76
2022/11/10 02:49:36;;;;;;;0.30;0.30;;;;;;;;;;10479938;28;20047;-76
2022/11/10 02:54:40;;;;;;;0.82;0.77;;;;;;;;;;10481610;28;20102;-77
2022/11/10 02:59:43;;;;;;;2.88;1.13;;;;;;;;;;10476376;28;20466;-76
2022/11/10 03:04:45;;;;;;;2.80;1.42;;;;;;;;;;10478871;28;20047;-77
2022/11/10 03:09:50;;;;;;;2.80;1.40;;;;;;;;;;10478134;28;20048;-75
2022/11/10 03:14:52;;;;;;;3.60;1.38;;;;;;;;;;10477758;28;20071;-76
2022/11/10 03:19:59;;;;;;;3.47;1.35;;;;;;;;;;10480021;28;20049;-76
2022/11/10 03:25:04;;;;;;;3.47;1.30;;;;;;;;;;10476782;28;20036;-76
2022/11/10 03:30:14;;;;;;;1.38;1.20;;;;;;;;;;10478158;28;20056;-76
2022/11/10 03:35:17;;;;;;;1.70;1.20;;;;;;;;;;10476840;28;20047;-76
2022/11/10 03:40:21;;;;;;;3.88;1.30;;;;;;;;;;10473036;28;20147;-75
2022/11/10 03:45:24;;;;;;;;;;;;;;;;;;10479730;28;20478;-77
2022/11/10 03:50:26;;;;;;;2.10;1.02;;;;;;;;;;10475420;28;20035;-76
2022/11/10 03:55:31;;;;;;;4.05;1.20;;;;;;;;;;10477205;28;20540;-76
2022/11/10 04:00:33;;;;;;;;;;;;;;;;;;10482058;28;20049;-75
2022/11/10 04:11:07;;;;;;;5.05;1.38;;;;;;;;;;10477471;28;20044;-76
2022/11/10 04:16:14;;;;;;;3.03;1.40;;;;;;;;;;10473770;28;20131;-76
2022/11/10 04:21:16;;;;;;;1.67;0.95;;;;;;;;;;10477106;28;20052;-78
2022/11/10 04:26:29;;;;;;;3.10;1.25;;;;;;;;;;10476365;28;20076;-77
2022/11/10 04:31:34;;;;;;;2.75;1.50;;;;;;;;;;10474357;28;20059;-76
2022/11/10 04:36:37;;;;;;;4.05;1.33;;;;;;;;;;10479808;28;20060;-76
2022/11/10 04:41:41;;;;;;;1.48;1.05;;;;;;;;;;10476089;28;20048;-77
2022/11/10 04:46:44;;;;;;;2.58;1.50;;;;;;;;;;10468720;28;20094;-76
2022/11/10 04:51:47;;;;;;;1.58;0.80;;;;;;;;;;10473884;28;20071;-76
2022/11/10 04:56:51;;;;;;;1.15;0.82;;;;;;;;;;10474569;28;20052;-76
2022/11/10 05:01:54;;;;;;;;;;;;;;;;;;10472594;28;20130;-75
2022/11/10 05:06:57;;;;;;;3.47;1.40;;;;;;;;;;10472405;28;20446;-77
2022/11/10 05:12:01;;;;;;;2.47;1.40;;;;;;;;;;10472588;28;20087;-75
2022/11/10 05:17:04;;;;;;;3.53;1.85;;;;;;;;;;10473097;28;20037;-76
2022/11/10 05:22:07;;;;;;;5.65;1.92;;;;;;;;;;10472386;28;20410;-75
2022/11/10 05:27:11;;;;;;;1.23;0.90;;;;;;;;;;10478932;28;20465;-76
2022/11/10 05:32:14;;;;;;;3.45;1.40;;;;;;;;;;10479422;28;20098;-76
2022/11/10 05:37:18;;;;;;;2.03;1.40;;;;;;;;;;10480372;28;20170;-76
2022/11/10 05:42:22;;;;;;;5.15;1.55;;;;;;;;;;10478762;28;20048;-76
2022/11/10 05:47:24;;;;;;;;;;;;;;;;;;10478791;28;20123;-77
2022/11/10 05:52:28;;;;;;;3.45;1.63;;;;;;;;;;10478527;28;19938;-78
2022/11/10 05:57:33;;;;;;;3.47;1.57;;;;;;;;;;10481321;28;20036;-78
2022/11/10 06:02:36;;;;;;;1.38;0.90;;;;;;;;;;10477851;28;20040;-79
2022/11/10 06:07:39;;;;;;;2.45;1.20;;;;;;;;;;10473406;28;20047;-76
2022/11/10 06:12:42;;;;;;;;;;;;;;;;;;10476122;28;20044;-77
2022/11/10 06:17:50;;;;;;;3.42;1.63;;;;;;;;;;10476283;28;19925;-77
2022/11/10 06:22:58;;;;;;;4.93;1.40;;;;;;;;;;10473525;28;20043;-76
2022/11/10 06:28:04;;;;;;;1.83;1.40;;;;;;;;;;10474565;28;20040;-77
2022/11/10 06:33:08;;;;;;;4.78;1.67;;;;;;;;;;10469392;28;20060;-78
2022/11/10 06:38:16;;;;;;;1.35;0.95;;;;;;;;;;10474310;28;20077;-76
2022/11/10 06:43:19;;;;;;;3.55;1.10;;;;;;;;;;10472408;28;20044;-77
2022/11/10 06:48:27;;;;;;;5.43;1.40;;;;;;;;;;10468711;28;20611;-76
2022/11/10 06:53:31;;;;;;;2.80;1.52;;;;;;;;;;10479024;28;20041;-76
2022/11/10 06:58:34;;;;;;;4.68;1.60;;;;;;;;;;10473772;28;20047;-77
2022/11/10 07:03:40;;;;;;;6.00;2.10;;;;;;;;;;10474475;28;20063;-76
2022/11/10 07:09:03;;;;;;;4.35;2.15;;;;;;;;;;10470094;28;20037;-77
2022/11/10 07:14:05;;;;;;;6.28;2.35;;;;;;;;;;10471812;28;20044;-77
2022/11/10 07:19:09;;;;;;;6.88;2.40;;;;;;;;;;10471402;28;20470;-77
2022/11/10 07:24:14;;;;;;;3.78;1.88;;;;;;;;;;10473736;28;20051;-76
2022/11/10 07:29:16;;;;;;;;;;;;;;;;;;10469842;28;20036;-77
2022/11/10 07:34:20;;;;;;;7.20;2.50;;;;;;;;;;10468070;28;19935;-78
2022/11/10 07:39:24;;;;;;;5.45;2.10;;;;;;;;;;10474611;28;20043;-76
2022/11/10 07:44:27;;;;;;;6.50;2.08;;;;;;;;;;10470807;28;20131;-77
2022/11/10 07:49:31;;;;;;;3.10;1.73;;;;;;;;;;10469574;28;20040;-77
2022/11/10 07:54:36;;;;;;;7.15;2.00;;;;;;;;;;10469745;28;20037;-76
2022/11/10 07:59:39;;;;;;;4.78;2.05;;;;;;;;;;10472129;28;20041;-76
2022/11/10 08:04:44;;;;;;;1.67;0.90;;;;;;;;;;10471847;28;20053;-76
2022/11/10 08:09:47;;;;;;;5.20;2.10;;;;;;;;;;10482354;28;20052;-77
2022/11/10 08:14:50;;;;;;;4.90;2.10;;;;;;;;;;10482083;28;20058;-76
2022/11/10 08:20:01;;;;;;;4.30;1.80;;;;;;;;;;10477438;28;20127;-76
2022/11/10 08:25:04;;;;;;;5.10;2.13;;;;;;;;;;10471450;28;20032;-77
2022/11/10 08:30:07;;;;;;;;;;;;;;;;;;10473454;28;20041;-76
2022/11/10 08:35:11;;;;;;;3.55;1.83;;;;;;;;;;10478199;28;19928;-76
2022/11/10 08:40:14;;;;;;;2.60;1.77;;;;;;;;;;10469320;28;20278;-76
2022/11/10 08:45:17;;;;;;;5.47;2.55;;;;;;;;;;10477409;28;20033;-77
2022/11/10 08:50:21;;;;;;;2.35;1.55;;;;;;;;;;10480541;28;20061;-78
2022/11/10 08:55:23;;;;;;;3.80;2.30;;;;;;;;;;10474220;28;20049;-79
2022/11/10 09:00:28;;;;;;;3.10;1.70;;;;;;;;;;10485253;28;20036;-77
2022/11/10 09:05:32;;;;;;;4.55;1.85;;;;;;;;;;10479489;28;20089;-78
2022/11/10 09:10:36;;;;;;;3.88;1.40;;;;;;;;;;10475906;28;20072;-77
2022/11/10 09:15:39;;;;;;;1.30;0.60;;;;;;;;;;10484558;28;20048;-78
2022/11/10 09:20:43;;;;;;;3.28;1.70;;;;;;;;;;10479999;28;20509;-75
2022/11/10 09:25:48;;;;;;;2.78;1.33;;;;;;;;;;10491409;28;20037;-78
2022/11/10 09:30:52;;;;;;;1.38;1.00;;;;;;;;;;10478333;28;20533;-77
2022/11/10 09:36:00;;;;;;;1.50;1.38;;;;;;;;;;10481017;28;20072;-77
2022/11/10 09:41:06;;;;;;;3.53;2.05;;;;;;;;;;10478751;28;20118;-77
2022/11/10 09:46:16;;;;;;;2.40;1.80;;;;;;;;;;10480041;28;20040;-77
2022/11/10 09:51:22;;;;;;;2.53;1.30;;;;;;;;;;10481186;28;20500;-75
2022/11/10 09:56:29;;;;;;;3.00;1.92;;;;;;;;;;10479325;28;20044;-76
2022/11/10 10:01:35;;;;;;;5.95;1.80;;;;;;;;;;10471510;28;20043;-77
2022/11/10 10:06:45;;;;;;;6.65;2.78;;;;;;;;;;10474941;28;20040;-76
2022/11/10 10:12:13;;;;;;;3.47;2.00;;;;;;;;;;10472895;28;20480;-76
2022/11/10 10:17:21;;;;;;;3.58;1.20;;;;;;;;;;10473197;28;20040;-77
2022/11/10 10:22:40;;;;;;;2.50;1.23;;;;;;;;;;10476647;28;20044;-77
2022/11/10 10:27:48;;;;;;;2.55;1.10;;;;;;;;;;10472084;28;20168;-77
2022/11/10 10:32:55;;;;;;;5.20;1.35;;;;;;;;;;10474396;28;20044;-76
2022/11/10 10:37:59;;;;;;;2.78;1.42;;;;;;;;;;10473277;28;20103;-76
2022/11/10 10:43:03;;;;;;;4.65;1.75;;;;;;;;;;10474499;28;20056;-77
2022/11/10 10:48:22;;;;;;;2.38;1.60;;;;;;;;;;10474203;28;20506;-76
2022/11/10 10:53:27;;;;;;;5.47;1.90;;;;;;;;;;10469824;28;20406;-76
2022/11/10 10:58:31;;;;;;;3.47;1.85;;;;;;;;;;10466438;28;20474;-77
2022/11/10 11:03:39;;;;;;;3.42;1.83;;;;;;;;;;10469516;28;20064;-75
2022/11/10 11:08:52;;;;;;;4.10;2.35;;;;;;;;;;10473961;28;20036;-74
2022/11/10 11:14:14;;;;;;;3.22;1.63;;;;;;;;;;10468643;28;20036;-75
2022/11/10 11:19:18;;;;;;;2.72;1.05;;;;;;;;;;10473072;28;20076;-76
2022/11/10 11:24:27;;;;;;;2.10;1.23;;;;;;;;;;10471903;28;20497;-76
2022/11/10 11:29:43;;;;;;;2.15;1.17;;;;;;;;;;10469756;28;20488;-75
2022/11/10 11:34:51;;;;;;;2.97;1.80;;;;;;;;;;10471279;28;20051;-77
2022/11/10 11:39:59;;;;;;;3.05;1.20;;;;;;;;;;10473264;28;20028;-76
2022/11/10 11:45:14;;;;;;;4.32;1.40;;;;;;;;;;10471575;28;20053;-76
2022/11/10 11:50:25;;;;;;;3.72;1.52;;;;;;;;;;10472525;28;20542;-75
2022/11/10 11:55:35;;;;;;;2.83;1.67;;;;;;;;;;10472897;28;20045;-76
2022/11/10 12:00:42;;;;;;;4.65;1.80;;;;;;;;;;10471393;28;20506;-76
2022/11/10 12:05:49;;;;;;;7.60;1.90;;;;;;;;;;10467781;28;20115;-76
2022/11/10 12:10:57;;;;;;;3.10;1.50;;;;;;;;;;10470801;28;20047;-76
2022/11/10 12:16:03;;;;;;;2.70;1.60;;;;;;;;;;10468727;28;20052;-76
2022/11/10 12:21:19;;;;;;;3.85;1.60;;;;;;;;;;10471108;28;20055;-75
2022/11/10 12:26:31;;;;;;;2.67;1.65;;;;;;;;;;10464898;28;20056;-76
2022/11/10 12:31:34;;;;;;;4.13;1.73;;;;;;;;;;10472653;28;20086;-75
2022/11/10 12:36:37;;;;;;;3.60;2.45;;;;;;;;;;10470657;28;20184;-77
2022/11/10 12:41:43;;;;;;;2.92;1.63;;;;;;;;;;10472001;28;20145;-76
2022/11/10 12:46:50;;;;;;;2.90;1.90;;;;;;;;;;10473837;28;20059;-77
2022/11/10 12:51:57;;;;;;;2.97;1.60;;;;;;;;;;10470028;28;20048;-76
2022/11/10 12:57:05;;;;;;;2.67;1.63;;;;;;;;;;10468102;28;20454;-76
2022/11/10 13:02:18;;;;;;;1.95;1.70;;;;;;;;;;10466858;28;20051;-76
2022/11/10 13:07:23;;;;;;;3.72;1.90;;;;;;;;;;10460946;28;20056;-75
2022/11/10 13:12:28;;;;;;;5.65;2.08;;;;;;;;;;10468878;28;20061;-75
2022/11/10 13:17:49;;;;;;;2.88;1.70;;;;;;;;;;10470930;28;20063;-77
2022/11/10 13:22:53;;;;;;;3.65;1.15;;;;;;;;;;10472212;28;20452;-76
2022/11/10 13:27:58;;;;;;;3.30;1.60;;;;;;;;;;10466670;28;20158;-75
2022/11/10 13:33:16;;;;;;;4.50;1.20;;;;;;;;;;10469657;28;20316;-77
2022/11/10 13:38:33;;;;;;;3.03;1.70;;;;;;;;;;10470513;28;20482;-75
2022/11/10 13:43:46;;;;;;;2.22;1.40;;;;;;;;;;10469495;28;20032;-75
2022/11/10 13:48:58;;;;;;;3.55;1.52;;;;;;;;;;10470526;28;20036;-75
2022/11/10 13:54:08;;;;;;;1.55;1.40;;;;;;;;;;10476963;28;20052;-75
2022/11/10 13:59:19;;;;;;;2.55;1.05;;;;;;;;;;10478037;28;20106;-75
2022/11/10 14:04:37;;;;;;;1.73;0.90;;;;;;;;;;10475782;28;20109;-76
2022/11/10 14:09:40;;;;;;;1.83;1.05;;;;;;;;;;10473454;28;20147;-75
2022/11/10 14:14:51;;;;;;;1.10;0.90;;;;;;;;;;10475922;28;20500;-75
2022/11/10 14:19:53;;;;;;;4.28;1.40;;;;;;;;;;10474280;28;20032;-76
2022/11/10 14:25:00;;;;;;;3.70;1.30;;;;;;;;;;10476263;28;20292;-75
2022/11/10 14:30:20;;;;;;;5.25;1.00;;;;;;;;;;10473095;28;20533;-76
2022/11/10 14:35:24;;;;;;;7.07;1.45;;;;;;;;;;10468218;28;20166;-75
2022/11/10 14:40:28;;;;;;;8.13;2.05;;;;;;;;;;10475194;28;20036;-76
2022/11/10 14:45:30;;;;;;;;;;;;;;;;;;10473642;28;20900;-75
2022/11/10 14:50:35;;;;;;;6.15;1.20;;;;;;;;;;10472790;28;20317;-75
2022/11/10 14:55:38;;;;;;;5.53;1.35;;;;;;;;;;10475740;28;20571;-74
2022/11/10 15:00:41;;;;;;;4.57;1.25;;;;;;;;;;10472421;28;20102;-75
2022/11/10 15:05:45;;;;;;;2.28;1.27;;;;;;;;;;10472230;28;20068;-75
2022/11/10 15:10:49;;;;;;;3.08;1.00;;;;;;;;;;10472797;28;20040;-76
2022/11/10 15:16:11;;;;;;;3.95;1.40;;;;;;;;;;10472221;28;20044;-75
2022/11/10 15:21:15;;;;;;;1.40;1.13;;;;;;;;;;10469082;28;20504;-77
2022/11/10 15:26:20;;;;;;;3.72;1.42;;;;;;;;;;10469950;28;20032;-77
2022/11/10 15:31:24;;;;;;;4.70;1.20;;;;;;;;;;10476220;28;20132;-75
2022/11/10 15:36:32;;;;;;;7.85;2.25;;;;;;;;;;10473014;28;20056;-74
2022/11/10 15:41:35;;;;;;;5.38;1.73;;;;;;;;;;10471160;28;20052;-75
2022/11/10 15:46:39;;;;;;;7.73;1.50;;;;;;;;;;10472312;28;20616;-76
2022/11/10 15:51:43;;;;;;;6.88;1.40;;;;;;;;;;10470437;28;20043;-75
2022/11/10 15:56:45;;;;;;;4.55;1.60;;;;;;;;;;10472622;28;20086;-77
2022/11/10 16:01:48;;;;;;;3.97;1.95;;;;;;;;;;10470159;28;20118;-76
2022/11/10 16:06:52;;;;;;;3.97;1.55;;;;;;;;;;10469852;28;20131;-75
2022/11/10 16:11:55;;;;;;;6.00;2.03;;;;;;;;;;10479370;28;20125;-75
2022/11/10 16:16:58;;;;;;;6.07;2.00;;;;;;;;;;10471142;28;20071;-75
2022/11/10 16:22:02;;;;;;;4.70;2.28;;;;;;;;;;10469303;28;20040;-75
2022/11/10 16:27:05;;;;;;;;;;;;;;;;;;10474038;28;20138;-75
2022/11/10 16:32:09;;;;;;;4.38;2.03;;;;;;;;;;10474383;28;20227;-75
2022/11/10 16:37:14;;;;;;;11.95;3.20;;;;;;;;;;10473307;28;20149;-75
2022/11/10 16:42:16;;;;;;;10.75;3.42;;;;;;;;;;10465591;28;20425;-75
2022/11/10 16:47:19;;;;;;;7.47;3.03;;;;;;;;;;10468027;28;20576;-76
2022/11/10 16:52:25;;;;;;;7.57;3.13;;;;;;;;;;10469821;28;20071;-77
2022/11/10 16:57:36;;;;;;;7.25;2.92;;;;;;;;;;10470205;28;20800;-76
2022/11/10 17:02:42;;;;;;;5.25;2.78;;;;;;;;;;10466499;28;20043;-76
2022/11/10 17:07:53;;;;;;;7.35;2.83;;;;;;;;;;10480726;28;20044;-76
2022/11/10 17:12:56;;;;;;;7.25;2.95;;;;;;;;;;10475867;28;20147;-76
2022/11/10 17:18:00;;;;;;;12.27;3.50;;;;;;;;;;10467184;28;20048;-76
2022/11/10 17:23:10;;;;;;;7.15;3.10;;;;;;;;;;10480373;28;20056;-76
2022/11/10 17:28:13;;;;;;;7.75;3.20;;;;;;;;;;10478649;28;20044;-76
2022/11/10 17:33:16;;;;;;;7.93;3.10;;;;;;;;;;10467701;28;20036;-75
2022/11/10 17:38:22;;;;;;;6.83;3.20;;;;;;;;;;10472950;28;20045;-75
2022/11/10 17:43:25;;;;;;;10.15;3.95;;;;;;;;;;10469804;28;20048;-75
2022/11/10 17:48:28;;;;;;;9.85;4.68;;;;;;;;;;10481240;28;20034;-76
2022/11/10 17:53:34;;;;;;;8.88;2.35;;;;;;;;;;10474980;28;20051;-76
2022/11/10 17:58:36;;;;;;;;;;;;;;;;;;10477330;28;20547;-76
2022/11/10 18:03:39;;;;;;;6.75;3.13;;;;;;;;;;10474766;28;20332;-75
2022/11/10 18:08:44;;;;;;;10.47;3.33;;;;;;;;;;10475417;28;20056;-74
2022/11/10 18:13:47;;;;;;;7.30;3.13;;;;;;;;;;10471075;28;20048;-75
2022/11/10 18:18:50;;;;;;;5.53;2.97;;;;;;;;;;10473088;28;20037;-75
2022/11/10 18:23:53;;;;;;;9.75;3.38;;;;;;;;;;10475776;28;20055;-75
2022/11/10 18:28:56;;;;;;;5.70;3.08;;;;;;;;;;10474780;28;20033;-76
2022/11/10 18:33:59;;;;;;;9.05;3.50;;;;;;;;;;10476135;28;20048;-75
2022/11/10 18:39:03;;;;;;;17.42;5.13;;;;;;;;;;10474775;28;20045;-76
2022/11/10 18:44:06;;;;;;;11.55;4.63;;;;;;;;;;10470728;28;20048;-76
2022/11/10 18:49:09;;;;;;;7.35;3.17;;;;;;;;;;10472911;28;20628;-75
2022/11/10 18:54:13;;;;;;;7.15;3.60;;;;;;;;;;10477151;28;20032;-76
2022/11/10 18:59:17;;;;;;;9.55;2.92;;;;;;;;;;10474515;28;20774;-76
2022/11/10 19:04:19;;;;;;;14.48;5.05;;;;;;;;;;10473485;28;20057;-76
2022/11/10 19:09:23;;;;;;;11.68;4.97;;;;;;;;;;10471789;28;20139;-75
2022/11/10 19:14:26;;;;;;;11.35;4.80;;;;;;;;;;10471226;28;20036;-77
2022/11/10 19:19:29;;;;;;;12.10;5.03;;;;;;;;;;10472474;28;20049;-75
2022/11/10 19:24:35;;;;;;;9.57;4.40;;;;;;;;;;10471987;28;20209;-76
2022/11/10 19:29:57;;;;;;;8.30;3.13;;;;;;;;;;10472753;28;20044;-76
2022/11/10 19:35:02;;;;;;;12.52;4.43;;;;;;;;;;10472393;28;20052;-76
2022/11/10 19:40:08;;;;;;;11.50;4.65;;;;;;;;;;10472515;28;20112;-75
2022/11/10 19:45:12;;;;;;;10.93;4.72;;;;;;;;;;10471261;28;20041;-76
2022/11/10 19:50:15;;;;;;;14.82;5.32;;;;;;;;;;10470086;28;20037;-75
2022/11/10 19:55:19;;;;;;;14.63;4.60;;;;;;;;;;10473257;28;20048;-75
2022/11/10 20:00:22;;;;;;;11.63;4.85;;;;;;;;;;10472039;28;20286;-77
2022/11/10 20:05:25;;;;;;;13.88;4.97;;;;;;;;;;10471147;28;20040;-75
2022/11/10 20:10:30;;;;;;;12.07;5.38;;;;;;;;;;10467450;28;20432;-75
2022/11/10 20:15:33;;;;;;;16.00;5.30;;;;;;;;;;10468692;28;20064;-76
2022/11/10 20:20:37;;;;;;;13.23;5.50;;;;;;;;;;10473582;28;20090;-75
2022/11/10 20:25:41;;;;;;;14.13;6.28;;;;;;;;;;10470535;28;20093;-77
2022/11/10 20:30:44;;;;;;;8.30;3.70;;;;;;;;;;10470246;28;20090;-78
2022/11/10 20:35:47;;;;;;;12.93;4.53;;;;;;;;;;10468937;28;20447;-76
2022/11/10 20:40:51;;;;;;;8.25;4.20;;;;;;;;;;10479661;28;20051;-76
2022/11/10 20:45:53;;;;;;;13.88;4.65;;;;;;;;;;10468987;28;20448;-75
2022/11/10 20:50:56;;;;;;;9.90;3.92;;;;;;;;;;10471278;28;20063;-76
2022/11/10 20:56:01;;;;;;;8.68;2.95;;;;;;;;;;10469868;28;20422;-78
2022/11/10 21:01:05;;;;;;;21.15;4.47;;;;;;;;;;10471641;28;20410;-76
2022/11/10 21:06:07;;;;;;;;;;;;;;;;;;10469096;28;20040;-75
2022/11/10 21:12:47;;;;;;;12.25;4.32;;;;;;;;;;10468809;28;19967;-77
2022/11/10 21:16:34;;;;;;;10.38;4.88;;;;;;;;;;10485144;28;20112;-75
2022/11/10 21:21:37;;;;;;;10.32;4.57;;;;;;;;;;10471867;28;20052;-75
2022/11/10 21:26:41;;;;;;;9.00;4.43;;;;;;;;;;10467310;28;20040;-77
2022/11/10 21:31:44;;;;;;;8.27;3.63;;;;;;;;;;10470242;28;20456;-76
2022/11/10 21:36:47;;;;;;;9.57;4.15;;;;;;;;;;10467491;28;20153;-75
2022/11/10 21:41:51;;;;;;;3.35;1.40;;;;;;;;;;10465969;28;20051;-77
2022/11/10 21:46:53;;;;;;;;;;;;;;;;;;10468158;28;20101;-75
2022/11/10 21:51:56;;;;;;;12.85;4.50;;;;;;;;;;10470428;28;20410;-75
2022/11/10 21:57:00;;;;;;;3.65;1.98;;;;;;;;;;10466825;28;20044;-76
2022/11/10 22:02:03;;;;;;;6.30;2.55;;;;;;;;;;10466110;28;20044;-75
2022/11/10 22:07:24;;;;;;;7.10;2.70;;;;;;;;;;10471692;28;20123;-76
2022/11/10 22:23:09;;;;;;;7.82;2.28;;;;;;;;;;10475924;28;20516;-74
2022/11/10 22:28:13;;;;;;;8.45;2.97;;;;;;;;;;10474827;28;20072;-76
2022/11/10 22:33:27;;;;;;;7.22;3.35;;;;;;;;;;10473539;28;20055;-76
2022/11/10 22:38:30;;;;;;;7.15;3.65;;;;;;;;;;10468776;28;20037;-76
2022/11/10 22:48:54;;;;;;;11.20;3.88;;;;;;;;;;10515339;28;20036;-75
2022/11/10 22:53:57;;;;;;;6.53;2.22;;;;;;;;;;10514103;28;20044;-77
2022/11/10 22:59:04;;;;;;;6.90;3.00;;;;;;;;;;10511593;28;20501;-77
2022/11/10 23:04:06;;;;;;;5.93;2.92;;;;;;;;;;10509755;28;20447;-76
2022/11/10 23:09:09;;;;;;;6.70;2.67;;;;;;;;;;10511778;28;20433;-76
2022/11/10 23:14:14;;;;;;;6.88;2.58;;;;;;;;;;10510632;28;20158;-75
2022/11/10 23:19:17;;;;;;;7.63;2.53;;;;;;;;;;10510770;28;20059;-75
2022/11/10 23:24:30;;;;;;;4.95;2.45;;;;;;;;;;10511661;28;20036;-75
2022/11/10 23:29:34;;;;;;;4.10;2.15;;;;;;;;;;10510651;28;20040;-76
2022/11/10 23:34:37;;;;;;;2.78;1.52;;;;;;;;;;10511431;28;20044;-77
2022/11/10 23:39:40;;;;;;;3.20;2.05;;;;;;;;;;10508986;28;20155;-75
2022/11/10 23:44:44;;;;;;;5.35;2.63;;;;;;;;;;10511060;28;20039;-76
2022/11/10 23:49:47;;;;;;;5.50;2.55;;;;;;;;;;10510051;28;20040;-76
2022/11/10 23:54:49;;;;;;;7.60;3.05;;;;;;;;;;10512536;28;20519;-76
2022/11/10 23:59:53;;;;;;;6.25;3.20;;;;;;;;;;10491343;28;20220;-75
